Time;durP1;ratioP1;P1;durP2;ratioP2;P2;SDS_P1;SDS_P2;PMS_P1;PMS_P2;Temp;Humidity;BMP_temperature;BMP_pressure;BME280_temperature;BME280_humidity;BME280_pressure;Samples;Min_cycle;Max_cycle;Signal;HPM_P1;HPM_P2
2023/12/03 00:00:42;;;;;;;11.55;3.53;;;;;;;-1.33;100.00;101034.28;4922690;29;20286;-67
2023/12/03 00:03:17;;;;;;;4.72;3.45;;;;;;;-1.40;100.00;101035.72;4927349;29;20216;-67
2023/12/03 00:05:51;;;;;;;6.55;3.00;;;;;;;-1.41;100.00;101042.03;4918335;29;20227;-67
2023/12/03 00:08:31;;;;;;;2.63;2.42;;;;;;;-1.49;100.00;101047.94;4908321;29;20267;-67
2023/12/03 00:11:22;;;;;;;10.40;3.65;;;;;;;-1.49;100.00;101044.44;4929709;29;20549;-68
2023/12/03 00:13:57;;;;;;;11.63;3.30;;;;;;;-1.58;100.00;101043.34;4925259;29;20220;-66
2023/12/03 00:16:36;;;;;;;7.18;4.50;;;;;;;-1.62;100.00;101054.34;4926340;29;20285;-67
2023/12/03 00:19:12;;;;;;;9.15;2.83;;;;;;;-1.59;100.00;101054.09;4929780;29;20674;-67
2023/12/03 00:21:47;;;;;;;3.70;2.17;;;;;;;-1.70;100.00;101054.94;4932912;29;20310;-66
2023/12/03 00:24:35;;;;;;;6.78;2.67;;;;;;;-1.70;100.00;101060.25;4938612;29;20223;-67
2023/12/03 00:27:14;;;;;;;3.85;3.55;;;;;;;-1.63;100.00;101056.13;4920597;29;20193;-67
2023/12/03 00:29:51;;;;;;;12.25;6.35;;;;;;;-1.61;100.00;101062.19;4906661;29;20207;-68
2023/12/03 00:32:25;;;;;;;7.97;4.03;;;;;;;-1.59;100.00;101062.88;4919420;29;20192;-66
2023/12/03 00:35:03;;;;;;;5.50;2.60;;;;;;;-1.60;100.00;101063.88;4924284;29;20634;-65
2023/12/03 00:40:29;;;;;;;10.48;3.30;;;;;;;-1.65;100.00;101071.34;4919738;29;20291;-67
2023/12/03 00:43:07;;;;;;;5.75;2.17;;;;;;;-1.58;100.00;101077.84;4929659;29;20227;-67
2023/12/03 00:45:44;;;;;;;5.57;2.80;;;;;;;-1.70;100.00;101077.97;4925458;29;20213;-67
2023/12/03 00:48:20;;;;;;;5.68;3.63;;;;;;;-1.82;100.00;101083.25;4921577;29;20279;-66
2023/12/03 00:51:01;;;;;;;3.35;2.88;;;;;;;-1.80;100.00;101083.16;4915579;29;20267;-67
2023/12/03 00:53:44;;;;;;;1.63;0.90;;;;;;;-1.84;100.00;101092.31;4929447;29;20210;-67
2023/12/03 00:56:23;;;;;;;9.52;3.85;;;;;;;-1.92;100.00;101089.38;4920029;29;20201;-67
2023/12/03 00:59:03;;;;;;;2.95;1.60;;;;;;;-1.85;100.00;101095.91;4913321;29;20672;-66
2023/12/03 01:01:37;;;;;;;3.70;3.25;;;;;;;-1.94;100.00;101086.88;4920368;29;20193;-66
2023/12/03 01:04:18;;;;;;;5.55;3.67;;;;;;;-2.01;100.00;101095.41;4921494;29;20244;-66
2023/12/03 01:06:59;;;;;;;1.25;1.15;;;;;;;-1.91;100.00;101107.00;4918697;29;20257;-67
2023/12/03 01:09:37;;;;;;;4.78;2.28;;;;;;;-1.94;100.00;101096.63;4918196;29;20192;-67
2023/12/03 01:12:13;;;;;;;4.90;3.50;;;;;;;-2.05;100.00;101099.25;4917545;29;20189;-66
2023/12/03 01:14:52;;;;;;;17.27;3.20;;;;;;;-2.11;100.00;101111.16;4915286;29;20221;-66
2023/12/03 01:17:33;;;;;;;1.77;1.58;;;;;;;-2.27;100.00;101111.47;4900817;29;20260;-68
2023/12/03 01:20:12;;;;;;;6.35;3.42;;;;;;;-2.34;100.00;101110.25;4901366;29;20197;-68
2023/12/03 01:22:47;;;;;;;1.45;1.23;;;;;;;-2.48;100.00;101121.03;4898254;29;20197;-67
2023/12/03 01:25:28;;;;;;;6.57;5.93;;;;;;;-2.50;100.00;101125.56;4906497;29;20221;-67
2023/12/03 01:28:07;;;;;;;3.20;2.30;;;;;;;-2.52;100.00;101122.22;4903181;29;20625;-67
2023/12/03 01:30:48;;;;;;;6.40;2.50;;;;;;;-2.53;100.00;101128.47;4901606;29;20573;-67
2023/12/03 01:33:28;;;;;;;11.60;2.20;;;;;;;-2.64;100.00;101123.94;4892770;29;20204;-68
2023/12/03 01:36:03;;;;;;;5.63;2.40;;;;;;;-2.66;100.00;101131.16;4892560;29;20208;-68
2023/12/03 01:38:40;;;;;;;7.88;2.85;;;;;;;-2.57;100.00;101145.56;4912699;29;20198;-67
2023/12/03 01:41:20;;;;;;;5.35;1.85;;;;;;;-2.65;100.00;101146.09;4916941;29;20636;-67
2023/12/03 01:44:01;;;;;;;2.72;2.05;;;;;;;-2.66;100.00;101147.03;4903898;29;20220;-66
2023/12/03 01:46:39;;;;;;;5.30;2.90;;;;;;;-2.73;100.00;101147.59;4907399;29;20563;-68
2023/12/03 01:49:16;;;;;;;0.90;0.73;;;;;;;-2.84;100.00;101144.88;4899336;29;20201;-68
2023/12/03 01:52:03;;;;;;;2.47;1.67;;;;;;;-2.79;100.00;101161.28;4900563;29;20545;-67
2023/12/03 01:54:38;;;;;;;3.53;1.40;;;;;;;-2.71;100.00;101161.59;4895675;29;20225;-67
2023/12/03 01:57:26;;;;;;;1.52;0.98;;;;;;;-2.76;100.00;101166.38;4902409;29;20217;-67
2023/12/03 02:00:09;;;;;;;6.45;2.25;;;;;;;-2.48;100.00;101166.06;4889770;29;20835;-67
2023/12/03 02:02:57;;;;;;;3.63;2.53;;;;;;;-2.59;100.00;101163.34;4908143;29;20258;-67
2023/12/03 02:05:39;;;;;;;1.50;1.30;;;;;;;-2.57;100.00;101164.09;4891404;29;20217;-70
2023/12/03 02:08:15;;;;;;;8.65;3.58;;;;;;;-2.36;100.00;101169.59;4923369;29;20734;-68
2023/12/03 02:10:49;;;;;;;1.80;1.15;;;;;;;-2.37;100.00;101166.09;4932665;29;20191;-68
2023/12/03 02:13:26;;;;;;;3.95;1.50;;;;;;;-2.30;100.00;101170.00;4920895;29;20236;-68
2023/12/03 02:16:07;;;;;;;4.10;1.58;;;;;;;-2.16;100.00;101173.44;4919936;29;20207;-67
2023/12/03 02:18:41;;;;;;;4.85;2.05;;;;;;;-2.14;100.00;101169.72;4908914;29;20222;-68
2023/12/03 02:21:21;;;;;;;5.50;2.83;;;;;;;-2.07;100.00;101170.94;4917326;29;20248;-70
2023/12/03 02:24:01;;;;;;;4.18;2.15;;;;;;;-2.09;100.00;101175.53;4932252;29;20298;-68
2023/12/03 02:26:42;;;;;;;3.17;1.50;;;;;;;-2.08;100.00;101173.75;4940266;29;20565;-68
2023/12/03 02:29:26;;;;;;;2.45;1.58;;;;;;;-1.95;100.00;101179.81;4921702;29;20204;-68
2023/12/03 02:32:01;;;;;;;4.45;3.03;;;;;;;-1.92;100.00;101179.56;4925704;29;20267;-68
2023/12/03 02:34:37;;;;;;;4.60;1.33;;;;;;;-1.91;100.00;101183.91;4907531;29;20226;-67
2023/12/03 02:37:13;;;;;;;3.33;2.28;;;;;;;-1.91;100.00;101183.91;4922848;29;20203;-67
2023/12/03 02:40:01;;;;;;;5.45;3.70;;;;;;;-1.94;100.00;101189.47;4949097;29;20207;-67
2023/12/03 02:42:39;;;;;;;5.50;2.00;;;;;;;-1.84;100.00;101187.81;4934281;29;20204;-67
2023/12/03 02:45:17;;;;;;;7.28;2.45;;;;;;;-1.87;100.00;101198.63;4934898;29;20288;-68
2023/12/03 02:47:55;;;;;;;6.28;2.83;;;;;;;-1.83;100.00;101192.97;4926885;29;20753;-65
2023/12/03 02:50:29;;;;;;;3.33;2.20;;;;;;;-1.67;100.00;101200.63;4913793;29;20194;-66
2023/12/03 02:53:05;;;;;;;2.75;2.13;;;;;;;-1.68;100.00;101204.25;4940775;29;20262;-67
2023/12/03 02:55:42;;;;;;;2.17;1.40;;;;;;;-1.71;100.00;101204.50;4928820;29;20225;-66
2023/12/03 02:58:18;;;;;;;1.50;1.38;;;;;;;-1.61;100.00;101208.13;4923784;29;20211;-67
2023/12/03 03:00:53;;;;;;;2.55;1.58;;;;;;;-1.56;100.00;101211.28;4917701;29;20294;-68
2023/12/03 03:03:28;;;;;;;2.33;2.10;;;;;;;-1.62;100.00;101218.84;4927790;29;20212;-68
2023/12/03 03:06:09;;;;;;;3.28;1.17;;;;;;;-1.55;100.00;101207.66;4910032;29;20243;-66
2023/12/03 03:08:44;;;;;;;2.70;1.80;;;;;;;-1.50;100.00;101208.16;4913803;29;20601;-67
2023/12/03 03:11:25;;;;;;;6.47;1.90;;;;;;;-1.51;100.00;101205.63;4926648;29;20200;-68
2023/12/03 03:14:01;;;;;;;5.47;2.50;;;;;;;-1.51;100.00;101210.94;4914139;29;20235;-67
2023/12/03 03:16:40;;;;;;;7.53;3.33;;;;;;;-1.56;100.00;101208.63;4923956;29;20641;-67
2023/12/03 03:19:20;;;;;;;3.03;2.20;;;;;;;-1.46;100.00;101209.63;4917691;29;20224;-66
2023/12/03 03:21:58;;;;;;;2.47;1.38;;;;;;;-1.45;100.00;101216.59;4927875;29;20229;-68
2023/12/03 03:24:33;;;;;;;2.88;2.33;;;;;;;-1.44;100.00;101217.44;4926997;29;20311;-67
2023/12/03 03:27:14;;;;;;;2.10;1.00;;;;;;;-1.42;100.00;101216.38;4927356;29;20232;-68
2023/12/03 03:29:47;;;;;;;6.00;2.47;;;;;;;-1.52;100.00;101217.19;4932002;29;20227;-67
2023/12/03 03:32:21;;;;;;;5.00;2.42;;;;;;;-1.48;100.00;101222.16;4921273;29;20192;-66
2023/12/03 03:35:00;;;;;;;10.43;1.85;;;;;;;-1.44;100.00;101220.97;4907830;29;20253;-66
2023/12/03 03:37:37;;;;;;;2.08;1.77;;;;;;;-1.31;100.00;101226.19;4937479;29;20283;-67
2023/12/03 03:40:14;;;;;;;4.80;3.20;;;;;;;-1.24;100.00;101219.44;4908176;29;20275;-68
2023/12/03 03:42:54;;;;;;;2.67;1.92;;;;;;;-1.27;100.00;101222.31;4910189;29;20741;-67
2023/12/03 03:45:30;;;;;;;1.90;1.50;;;;;;;-1.28;100.00;101222.44;4918091;29;20719;-67
2023/12/03 03:48:17;;;;;;;3.15;2.03;;;;;;;-1.31;100.00;101211.06;4914111;29;20193;-67
2023/12/03 03:50:51;;;;;;;3.17;1.55;;;;;;;-1.36;100.00;101215.06;4919512;29;20192;-68
2023/12/03 03:53:24;;;;;;;2.10;1.58;;;;;;;-1.34;100.00;101213.97;4920519;29;20199;-68
2023/12/03 03:56:02;;;;;;;2.67;2.20;;;;;;;-1.32;100.00;101212.06;4934698;29;20227;-68
2023/12/03 03:58:46;;;;;;;2.55;2.00;;;;;;;-1.29;100.00;101215.44;4937816;29;20195;-66
2023/12/03 04:01:23;;;;;;;2.30;1.30;;;;;;;-1.26;100.00;101220.53;4928196;29;20220;-67
2023/12/03 04:04:04;;;;;;;5.10;2.22;;;;;;;-1.16;100.00;101218.84;4906795;29;20225;-67
2023/12/03 04:06:41;;;;;;;1.98;1.88;;;;;;;-1.07;100.00;101226.09;4919321;29;20203;-65
2023/12/03 04:09:20;;;;;;;4.75;2.70;;;;;;;-1.07;100.00;101226.09;4924376;29;20260;-67
2023/12/03 04:11:55;;;;;;;1.65;1.55;;;;;;;-1.22;100.00;101221.97;4917439;29;20278;-67
2023/12/03 04:14:32;;;;;;;11.23;3.03;;;;;;;-1.00;100.00;101221.97;4920669;29;20225;-66
2023/12/03 04:17:07;;;;;;;6.78;2.55;;;;;;;-0.93;100.00;101224.06;4932864;29;20203;-67
2023/12/03 04:19:44;;;;;;;2.20;1.55;;;;;;;-0.93;100.00;101224.06;4917181;29;20208;-67
2023/12/03 04:22:16;;;;;;;3.38;1.40;;;;;;;-0.97;100.00;101241.19;4923969;29;20193;-70
2023/12/03 04:24:51;;;;;;;6.88;2.05;;;;;;;-0.98;100.00;101233.34;4904113;29;20719;-68
2023/12/03 04:27:25;;;;;;;3.17;1.25;;;;;;;-0.96;100.00;101242.03;4934912;29;20220;-67
2023/12/03 04:30:19;;;;;;;4.72;2.40;;;;;;;-0.97;100.00;101246.50;4939436;29;20580;-67
2023/12/03 04:32:56;;;;;;;7.30;3.20;;;;;;;-1.00;100.00;101245.88;4922697;29;20228;-70
2023/12/03 04:35:30;;;;;;;8.05;2.38;;;;;;;-1.03;100.00;101244.34;4921021;29;20228;-67
2023/12/03 04:38:09;;;;;;;2.35;2.15;;;;;;;-1.00;100.00;101243.22;4928373;29;20205;-68
2023/12/03 04:40:44;;;;;;;3.65;2.22;;;;;;;-1.09;100.00;101244.78;4915186;29;20602;-70
2023/12/03 04:43:21;;;;;;;2.83;2.40;;;;;;;-0.94;100.00;101245.41;4913208;29;20249;-68
2023/12/03 04:45:59;;;;;;;5.95;2.60;;;;;;;-0.89;100.00;101244.09;4923557;29;20208;-68
2023/12/03 04:48:37;;;;;;;1.90;1.65;;;;;;;-0.86;100.00;101248.31;4925043;29;20199;-68
2023/12/03 04:51:14;;;;;;;3.25;2.10;;;;;;;-1.01;100.00;101252.16;4928247;29;20265;-68
2023/12/03 04:53:50;;;;;;;13.10;2.15;;;;;;;-0.90;100.00;101249.53;4926874;29;20284;-68
2023/12/03 04:56:24;;;;;;;2.05;1.65;;;;;;;-0.80;100.00;101252.31;4911842;29;20211;-67
2023/12/03 04:59:00;;;;;;;5.57;2.65;;;;;;;-0.88;100.00;101248.44;4938567;29;20209;-68
2023/12/03 05:01:42;;;;;;;5.60;3.88;;;;;;;-0.99;100.00;101247.59;4920552;29;20200;-65
2023/12/03 05:04:16;;;;;;;8.10;4.95;;;;;;;-0.94;100.00;101248.06;4933400;29;20212;-68
2023/12/03 05:06:53;;;;;;;3.75;2.15;;;;;;;-0.85;100.00;101252.66;4921970;29;20199;-68
2023/12/03 05:09:33;;;;;;;6.60;4.88;;;;;;;-0.82;100.00;101256.91;4902754;29;20188;-67
2023/12/03 05:12:16;;;;;;;5.78;4.00;;;;;;;-0.94;100.00;101258.69;4895832;29;20704;-68
2023/12/03 05:14:52;;;;;;;6.80;2.15;;;;;;;-0.85;100.00;101257.97;4915000;29;20222;-68
2023/12/03 05:17:28;;;;;;;3.67;2.85;;;;;;;-0.91;100.00;101261.97;4921078;29;20222;-67
2023/12/03 05:20:03;;;;;;;2.58;1.98;;;;;;;-1.00;100.00;101260.03;4895486;29;20254;-67
2023/12/03 05:22:42;;;;;;;4.00;2.25;;;;;;;-1.07;100.00;101264.13;4917901;29;20193;-66
2023/12/03 05:25:18;;;;;;;8.90;3.13;;;;;;;-0.90;100.00;101281.41;4891422;29;20225;-67
2023/12/03 05:27:54;;;;;;;5.20;2.25;;;;;;;-0.95;100.00;101275.59;4893801;29;20206;-68
2023/12/03 05:30:30;;;;;;;4.82;2.50;;;;;;;-0.89;100.00;101277.78;4919110;29;20197;-67
2023/12/03 05:33:15;;;;;;;5.28;3.60;;;;;;;-0.87;100.00;101281.16;4922249;29;20200;-68
2023/12/03 05:35:50;;;;;;;3.92;3.47;;;;;;;-0.83;100.00;101277.31;4904512;29;20778;-67
2023/12/03 05:38:24;;;;;;;6.10;3.15;;;;;;;-0.83;100.00;101285.28;4893428;29;20572;-68
2023/12/03 05:41:01;;;;;;;6.72;2.75;;;;;;;-0.90;100.00;101284.91;4893579;29;20210;-67
2023/12/03 05:43:38;;;;;;;3.45;2.42;;;;;;;-0.91;100.00;101285.03;4897857;29;20248;-68
2023/12/03 05:47:16;;;;;;;4.85;1.80;;;;;;;-0.88;100.00;101290.13;4880786;29;20209;-68
2023/12/03 05:50:02;;;;;;;6.07;4.45;;;;;;;-0.93;100.00;101287.81;4899385;29;20621;-66
2023/12/03 05:52:35;;;;;;;3.95;2.08;;;;;;;-0.94;100.00;101295.91;4898941;29;20296;-66
2023/12/03 05:55:12;;;;;;;3.85;2.33;;;;;;;-1.02;100.00;101293.00;4901005;29;20221;-67
2023/12/03 05:57:48;;;;;;;6.15;3.08;;;;;;;-1.08;100.00;101309.41;4915971;29;20193;-66
2023/12/03 06:00:24;;;;;;;3.13;2.92;;;;;;;-0.98;100.00;101310.38;4901940;29;20300;-67
2023/12/03 06:03:00;;;;;;;6.50;5.90;;;;;;;-0.98;100.00;101305.06;4879387;29;20205;-65
2023/12/03 06:05:38;;;;;;;5.05;4.32;;;;;;;-1.09;100.00;101311.19;4889292;29;20217;-66
2023/12/03 06:08:16;;;;;;;6.05;5.45;;;;;;;-1.02;100.00;101316.91;4903707;29;20620;-67
2023/12/03 06:10:52;;;;;;;10.75;4.13;;;;;;;-0.98;100.00;101321.00;4898049;29;20211;-66
2023/12/03 06:13:33;;;;;;;5.85;3.20;;;;;;;-1.08;100.00;101314.72;4917319;29;20217;-67
2023/12/03 06:16:11;;;;;;;16.40;5.25;;;;;;;-1.03;100.00;101317.84;4906656;29;20268;-67
2023/12/03 06:18:47;;;;;;;7.50;3.85;;;;;;;-0.97;100.00;101318.22;4897292;29;20283;-66
2023/12/03 06:21:28;;;;;;;6.20;3.63;;;;;;;-1.04;100.00;101318.81;4908026;29;20560;-67
2023/12/03 06:24:06;;;;;;;4.75;3.28;;;;;;;-0.99;100.00;101324.63;4897851;29;20218;-66
2023/12/03 06:26:47;;;;;;;5.43;4.55;;;;;;;-1.10;100.00;101320.13;4902314;29;20245;-67
2023/12/03 06:29:25;;;;;;;4.10;2.47;;;;;;;-1.19;100.00;101325.28;4893606;29;20204;-67
2023/12/03 06:32:02;;;;;;;4.32;3.15;;;;;;;-1.42;100.00;101325.22;4892612;29;20208;-67
2023/12/03 06:34:42;;;;;;;3.08;2.88;;;;;;;-1.38;100.00;101317.88;4899957;29;20230;-68
2023/12/03 06:37:21;;;;;;;3.28;2.97;;;;;;;-1.40;100.00;101328.59;4902801;29;20198;-67
2023/12/03 06:39:59;;;;;;;4.45;3.53;;;;;;;-1.33;100.00;101329.84;4918680;29;20209;-68
2023/12/03 06:42:35;;;;;;;6.25;4.43;;;;;;;-1.31;100.00;101335.06;4894532;29;20249;-68
2023/12/03 06:45:13;;;;;;;4.35;3.30;;;;;;;-1.26;100.00;101337.34;4898369;29;20232;-68
2023/12/03 06:47:52;;;;;;;7.38;3.88;;;;;;;-1.17;100.00;101342.81;4897823;29;20282;-66
2023/12/03 06:50:29;;;;;;;3.75;2.25;;;;;;;-1.16;100.00;101344.50;4910091;29;20599;-67
2023/12/03 06:53:14;;;;;;;3.70;2.78;;;;;;;-1.12;100.00;101356.59;4880273;29;20205;-67
2023/12/03 06:55:51;;;;;;;3.30;3.00;;;;;;;-1.07;100.00;101353.59;4896472;29;20223;-66
2023/12/03 06:58:29;;;;;;;5.75;3.28;;;;;;;-1.03;100.00;101352.38;4904560;29;20299;-68
2023/12/03 07:01:07;;;;;;;7.63;2.92;;;;;;;-1.16;100.00;101354.28;4904023;29;20214;-68
2023/12/03 07:03:45;;;;;;;3.78;3.40;;;;;;;-1.03;100.00;101361.22;4897514;29;20205;-66
2023/12/03 07:06:25;;;;;;;6.20;5.65;;;;;;;-1.22;100.00;101370.69;4920727;29;20628;-68
2023/12/03 07:09:06;;;;;;;7.63;2.67;;;;;;;-1.15;100.00;101372.75;4915632;29;20212;-67
2023/12/03 07:12:02;;;;;;;6.93;3.92;;;;;;;-1.17;100.00;101377.34;4923080;29;20202;-67
2023/12/03 07:14:36;;;;;;;9.40;4.00;;;;;;;-1.10;100.00;101386.53;4927676;29;20255;-67
2023/12/03 07:17:15;;;;;;;4.13;3.47;;;;;;;-1.10;100.00;101385.69;4924949;29;20196;-66
2023/12/03 07:19:55;;;;;;;5.53;2.92;;;;;;;-1.15;100.00;101387.84;4922891;29;20204;-65
2023/12/03 07:22:32;;;;;;;5.55;2.28;;;;;;;-1.39;100.00;101391.34;4916008;29;20221;-66
2023/12/03 07:25:14;;;;;;;4.63;3.55;;;;;;;-1.33;100.00;101390.06;4929641;29;20712;-68
2023/12/03 07:27:51;;;;;;;8.13;4.10;;;;;;;-1.35;100.00;101390.16;4904320;29;20201;-67
2023/12/03 07:30:29;;;;;;;6.47;4.75;;;;;;;-1.28;100.00;101395.88;4930176;29;20196;-65
2023/12/03 07:33:04;;;;;;;7.47;3.92;;;;;;;-1.12;100.00;101392.94;4923229;29;20243;-67
2023/12/03 07:35:41;;;;;;;6.28;5.13;;;;;;;-1.20;100.00;101401.44;4910671;29;20597;-67
2023/12/03 07:38:19;;;;;;;8.93;4.15;;;;;;;-1.25;100.00;101400.09;4923617;29;20199;-67
2023/12/03 07:41:01;;;;;;;6.43;5.15;;;;;;;-1.41;100.00;101409.22;4913918;29;20213;-66
2023/12/03 07:43:38;;;;;;;4.88;2.90;;;;;;;-1.44;100.00;101404.13;4913281;29;20206;-67
2023/12/03 07:46:23;;;;;;;4.22;2.25;;;;;;;-1.53;100.00;101403.94;4916463;29;20300;-68
2023/12/03 07:48:59;;;;;;;6.22;3.35;;;;;;;-1.46;100.00;101411.38;4913559;29;20198;-67
2023/12/03 07:51:36;;;;;;;12.63;3.45;;;;;;;-1.41;100.00;101413.69;4925364;29;20192;-67
2023/12/03 07:54:14;;;;;;;5.45;2.05;;;;;;;-1.35;100.00;101411.41;4916663;29;20233;-68
2023/12/03 07:56:57;;;;;;;7.45;3.05;;;;;;;-1.27;100.00;101416.16;4923276;29;20198;-66
2023/12/03 07:59:33;;;;;;;8.20;3.78;;;;;;;-1.35;100.00;101424.69;4910310;29;20215;-67
2023/12/03 08:02:12;;;;;;;3.05;1.58;;;;;;;-1.27;100.00;101420.63;4917823;29;20657;-68
2023/12/03 08:04:48;;;;;;;8.52;4.07;;;;;;;-1.34;100.00;101418.41;4917300;29;20221;-66
2023/12/03 08:07:24;;;;;;;6.40;3.20;;;;;;;-1.36;100.00;101427.47;4921022;29;20207;-66
2023/12/03 08:10:03;;;;;;;9.10;5.20;;;;;;;-1.40;100.00;101426.81;4919712;29;20220;-67
2023/12/03 08:12:41;;;;;;;13.75;7.18;;;;;;;-1.36;100.00;101422.16;4918898;29;20201;-67
2023/12/03 08:15:22;;;;;;;8.25;5.50;;;;;;;-1.36;100.00;101435.44;4927123;29;20225;-68
2023/12/03 08:17:59;;;;;;;10.93;2.88;;;;;;;-1.50;100.00;101425.81;4919786;29;20248;-68
2023/12/03 08:20:48;;;;;;;12.50;4.90;;;;;;;-1.35;100.00;101434.44;4934333;29;20310;-68
2023/12/03 08:23:27;;;;;;;9.60;3.67;;;;;;;-1.39;100.00;101431.19;4920997;29;20200;-68
2023/12/03 08:26:03;;;;;;;6.30;2.08;;;;;;;-1.25;100.00;101434.63;4925302;29;20223;-67
2023/12/03 08:28:40;;;;;;;5.53;3.13;;;;;;;-1.17;100.00;101434.91;4947861;29;20192;-67
2023/12/03 08:31:23;;;;;;;4.05;2.40;;;;;;;-0.98;100.00;101432.59;4941235;29;20181;-68
2023/12/03 08:34:00;;;;;;;6.47;5.50;;;;;;;-1.22;100.00;101439.72;4919762;29;20227;-66
2023/12/03 08:36:41;;;;;;;6.25;1.95;;;;;;;-1.34;100.00;101447.63;4919964;29;20621;-68
2023/12/03 08:39:20;;;;;;;6.95;4.20;;;;;;;-1.18;100.00;101443.84;4921542;29;20196;-67
2023/12/03 08:41:57;;;;;;;11.30;3.30;;;;;;;-1.18;100.00;101443.84;4916612;29;20219;-68
2023/12/03 08:44:39;;;;;;;7.15;6.10;;;;;;;-1.23;100.00;101440.69;4917789;29;20740;-68
2023/12/03 08:47:16;;;;;;;7.68;2.67;;;;;;;-1.35;100.00;101451.22;4901084;29;20209;-67
2023/12/03 08:49:54;;;;;;;6.43;3.60;;;;;;;-1.14;100.00;101450.63;4943324;29;20202;-65
2023/12/03 08:52:31;;;;;;;7.38;2.88;;;;;;;-1.08;100.00;101451.03;4936210;29;20205;-68
2023/12/03 08:55:06;;;;;;;3.97;3.67;;;;;;;-1.12;100.00;101462.84;4936023;29;20258;-67
2023/12/03 08:57:42;;;;;;;2.10;1.70;;;;;;;-1.36;100.00;101460.19;4919686;29;20201;-68
2023/12/03 09:00:22;;;;;;;10.68;4.30;;;;;;;-1.24;100.00;101465.53;4920362;29;20747;-68
2023/12/03 09:02:58;;;;;;;7.80;4.47;;;;;;;-1.23;100.00;101461.91;4937842;29;20244;-67
2023/12/03 09:05:42;;;;;;;5.88;3.08;;;;;;;-1.24;100.00;101473.50;4943614;29;20718;-68
2023/12/03 09:08:23;;;;;;;5.28;3.72;;;;;;;-1.17;100.00;101474.75;4914108;29;20230;-68
2023/12/03 09:11:01;;;;;;;3.28;2.88;;;;;;;-0.91;100.00;101486.94;4887803;29;20210;-68
2023/12/03 09:13:37;;;;;;;3.78;3.28;;;;;;;-1.12;100.00;101483.25;4888181;29;20202;-68
2023/12/03 09:16:15;;;;;;;2.15;1.45;;;;;;;-1.16;100.00;101479.13;4905654;29;20201;-67
2023/12/03 09:19:06;;;;;;;5.57;1.98;;;;;;;-1.27;100.00;101473.72;4913681;29;20225;-69
2023/12/03 09:22:00;;;;;;;5.70;3.28;;;;;;;-0.87;100.00;101483.94;4919995;29;20213;-68
2023/12/03 09:24:43;;;;;;;2.92;2.17;;;;;;;-1.12;100.00;101476.13;4903259;29;20233;-69
2023/12/03 09:27:17;;;;;;;5.15;4.43;;;;;;;-0.95;100.00;101485.47;4913553;29;20197;-70
2023/12/03 09:29:56;;;;;;;12.15;5.43;;;;;;;-0.90;100.00;101489.50;4891705;29;20297;-67
2023/12/03 09:32:41;;;;;;;7.72;3.67;;;;;;;-1.09;100.00;101498.94;4894033;29;20205;-68
2023/12/03 09:35:18;;;;;;;3.40;2.47;;;;;;;-1.16;100.00;101500.38;4887466;29;20221;-68
2023/12/03 09:37:56;;;;;;;10.95;4.25;;;;;;;-1.05;100.00;101495.09;4906201;29;20270;-68
2023/12/03 09:40:39;;;;;;;5.13;3.22;;;;;;;-1.24;100.00;101489.44;4897379;29;20224;-67
2023/12/03 09:43:15;;;;;;;13.15;3.00;;;;;;;-1.08;100.00;101495.31;4892019;29;20203;-67
2023/12/03 09:45:59;;;;;;;5.75;3.97;;;;;;;-1.14;100.00;101496.63;4916272;29;20244;-68
2023/12/03 09:48:44;;;;;;;4.10;3.00;;;;;;;-1.08;100.00;101496.19;4900005;29;20626;-68
2023/12/03 09:52:18;;;;;;;10.18;3.30;;;;;;;-0.83;100.00;101497.88;4894678;29;20193;-68
2023/12/03 09:55:01;;;;;;;10.18;3.35;;;;;;;-0.91;100.00;101500.22;4884990;29;20221;-66
2023/12/03 09:57:41;;;;;;;1.60;1.50;;;;;;;-1.08;100.00;101497.97;4905296;29;20625;-68
2023/12/03 10:00:23;;;;;;;11.73;3.33;;;;;;;-0.87;100.00;101509.66;4909166;29;20224;-68
2023/12/03 10:03:00;;;;;;;3.33;1.58;;;;;;;-1.14;100.00;101503.75;4896960;29;20282;-68
2023/12/03 10:05:36;;;;;;;3.95;2.75;;;;;;;-1.22;100.00;101498.16;4902064;29;20718;-68
2023/12/03 10:08:12;;;;;;;4.53;2.75;;;;;;;-1.11;100.00;101498.19;4914147;29;20201;-66
2023/12/03 10:10:56;;;;;;;5.03;2.92;;;;;;;-0.99;100.00;101499.97;4897702;29;20198;-66
2023/12/03 10:13:34;;;;;;;8.20;3.15;;;;;;;-0.96;100.00;101499.72;4887518;29;20268;-65
2023/12/03 10:16:19;;;;;;;5.00;2.80;;;;;;;-1.13;100.00;101508.09;4908260;29;20281;-65
2023/12/03 10:19:07;;;;;;;4.70;1.55;;;;;;;-0.72;100.00;101513.84;4889164;29;20237;-66
2023/12/03 10:21:53;;;;;;;3.85;2.40;;;;;;;-0.82;99.84;101512.00;4892857;29;20217;-65
2023/12/03 10:24:51;;;;;;;2.97;2.03;;;;;;;-0.54;99.07;101512.47;4892893;29;20599;-64
2023/12/03 10:27:34;;;;;;;8.77;3.13;;;;;;;-0.47;97.26;101508.38;4893323;29;20304;-66
2023/12/03 10:30:21;;;;;;;3.30;2.20;;;;;;;-0.55;96.98;101509.94;4927948;29;20623;-65
2023/12/03 10:32:58;;;;;;;2.42;2.22;;;;;;;-0.59;97.58;101503.16;4888912;29;20227;-66
2023/12/03 10:35:37;;;;;;;5.03;3.45;;;;;;;-0.33;97.04;101509.13;4911618;29;20283;-66
2023/12/03 10:38:16;;;;;;;4.00;2.00;;;;;;;-0.23;95.50;101502.16;4908340;29;20231;-66
2023/12/03 10:40:59;;;;;;;8.10;3.42;;;;;;;-0.29;95.68;101516.75;4898149;29;20201;-67
2023/12/03 10:43:48;;;;;;;5.53;2.60;;;;;;;-0.08;95.68;101512.47;4893512;29;20229;-66
2023/12/03 10:46:26;;;;;;;2.83;2.47;;;;;;;-0.28;95.45;101513.13;4911047;29;20203;-66
2023/12/03 10:49:02;;;;;;;5.35;1.95;;;;;;;-0.33;95.01;101514.44;4896540;29;20207;-65
2023/12/03 10:54:51;;;;;;;6.07;5.55;;;;;;;-0.48;95.46;101514.66;4911172;29;20787;-65
2023/12/03 10:57:36;;;;;;;3.38;1.67;;;;;;;-0.58;96.06;101520.81;4893242;29;20248;-67
2023/12/03 11:00:11;;;;;;;7.95;3.28;;;;;;;-0.41;96.51;101520.38;4902632;29;20204;-66
2023/12/03 11:02:56;;;;;;;4.13;3.72;;;;;;;-0.37;96.62;101523.63;4904464;29;20208;-66
2023/12/03 11:05:36;;;;;;;10.93;4.47;;;;;;;-0.32;96.51;101532.09;4908230;29;20267;-66
2023/12/03 11:08:41;;;;;;;5.30;3.72;;;;;;;-0.39;95.71;101526.44;4886125;29;20207;-67
2023/12/03 11:11:31;;;;;;;1.65;0.98;;;;;;;-0.23;94.69;101526.09;4918223;29;20205;-66
2023/12/03 11:14:22;;;;;;;5.63;2.67;;;;;;;-0.17;94.42;101525.63;4932042;29;20280;-66
2023/12/03 11:17:10;;;;;;;7.18;3.03;;;;;;;-0.15;93.84;101534.34;4910592;29;20272;-65
2023/12/03 11:19:54;;;;;;;4.55;2.58;;;;;;;-0.24;93.99;101535.06;4926205;29;20624;-66
2023/12/03 11:22:51;;;;;;;6.50;4.93;;;;;;;-0.28;93.82;101533.56;4942088;29;20230;-65
2023/12/03 11:25:37;;;;;;;6.45;3.75;;;;;;;-0.12;93.20;101539.41;4942058;29;20220;-66
2023/12/03 11:28:22;;;;;;;4.60;2.10;;;;;;;-0.02;93.10;101543.91;4946939;29;20188;-65
2023/12/03 11:31:01;;;;;;;7.55;2.78;;;;;;;0.01;92.54;101542.81;4932520;29;20208;-67
2023/12/03 11:33:52;;;;;;;9.27;3.33;;;;;;;-0.04;93.06;101537.00;4922765;29;20219;-66
2023/12/03 11:36:47;;;;;;;9.90;4.70;;;;;;;0.11;92.25;101535.81;4917824;29;20221;-67
2023/12/03 11:39:28;;;;;;;9.23;4.20;;;;;;;0.20;92.38;101550.22;4923955;29;20205;-67
2023/12/03 11:42:29;;;;;;;7.13;5.05;;;;;;;-0.16;93.16;101560.09;4869144;29;20242;-67
2023/12/03 11:45:34;;;;;;;2.90;1.90;;;;;;;-0.32;95.21;101558.69;4858649;29;20268;-67
2023/12/03 11:48:17;;;;;;;9.85;3.92;;;;;;;-0.55;95.75;101569.28;4835908;29;20203;-66
2023/12/03 11:50:57;;;;;;;4.40;2.33;;;;;;;-0.74;96.93;101562.78;4852021;29;20199;-66
2023/12/03 11:53:46;;;;;;;3.70;2.83;;;;;;;-0.72;97.56;101567.00;4852050;29;20204;-69
2023/12/03 11:56:24;;;;;;;4.72;2.00;;;;;;;-0.49;96.78;101570.63;4859955;29;20214;-68
2023/12/03 11:59:02;;;;;;;7.40;3.15;;;;;;;-0.59;97.22;101578.44;4844984;29;20203;-66
2023/12/03 12:01:46;;;;;;;6.50;2.65;;;;;;;-0.44;97.80;101579.09;4850625;29;20222;-65
2023/12/03 12:04:27;;;;;;;6.80;3.55;;;;;;;-0.56;96.06;101572.88;4848475;29;20231;-66
2023/12/03 12:07:15;;;;;;;2.80;2.20;;;;;;;-0.52;97.20;101574.34;4890212;29;20200;-66
2023/12/03 12:09:53;;;;;;;4.65;2.80;;;;;;;-0.51;96.75;101581.38;4900481;29;20209;-65
2023/12/03 12:12:35;;;;;;;4.30;2.70;;;;;;;-0.62;97.09;101578.66;4926289;29;20303;-65
2023/12/03 12:15:16;;;;;;;3.83;2.78;;;;;;;-0.68;96.67;101573.81;4911392;29;20225;-66
2023/12/03 12:18:02;;;;;;;4.95;2.30;;;;;;;-0.65;96.58;101578.88;4922772;29;20291;-67
2023/12/03 12:20:40;;;;;;;5.70;2.90;;;;;;;-0.60;97.53;101583.88;4905217;29;20213;-67